sensor_id;sensor_type;location;lat;lon;timestamp;P1;durP1;ratioP1;P2;durP2;ratioP2
12348;SDS011;5974;42.710;27.258;2022-10-30T00:00:33;6.70;;;4.53;;
12348;SDS011;5974;42.710;27.258;2022-10-30T00:03:00;5.47;;;4.77;;
12348;SDS011;5974;42.710;27.258;2022-10-30T00:05:26;7.67;;;4.80;;
12348;SDS011;5974;42.710;27.258;2022-10-30T00:07:53;5.23;;;4.73;;
12348;SDS011;5974;42.710;27.258;2022-10-30T00:10:20;4.90;;;4.40;;
12348;SDS011;5974;42.710;27.258;2022-10-30T00:12:48;4.57;;;4.10;;
12348;SDS011;5974;42.710;27.258;2022-10-30T00:15:15;4.73;;;4.07;;
12348;SDS011;5974;42.710;27.258;2022-10-30T00:17:41;5.43;;;4.20;;
12348;SDS011;5974;42.710;27.258;2022-10-30T00:20:08;4.60;;;4.20;;
12348;SDS011;5974;42.710;27.258;2022-10-30T00:22:35;5.97;;;4.70;;
12348;SDS011;5974;42.710;27.258;2022-10-30T00:25:02;5.13;;;4.63;;
12348;SDS011;5974;42.710;27.258;2022-10-30T00:27:28;8.93;;;4.37;;
12348;SDS011;5974;42.710;27.258;2022-10-30T00:29:56;5.97;;;4.73;;
12348;SDS011;5974;42.710;27.258;2022-10-30T00:32:23;4.90;;;4.40;;
12348;SDS011;5974;42.710;27.258;2022-10-30T00:34:49;6.13;;;4.97;;
12348;SDS011;5974;42.710;27.258;2022-10-30T00:37:16;4.63;;;4.23;;
12348;SDS011;5974;42.710;27.258;2022-10-30T00:39:43;7.47;;;4.63;;
12348;SDS011;5974;42.710;27.258;2022-10-30T00:42:11;7.27;;;4.63;;
12348;SDS011;5974;42.710;27.258;2022-10-30T00:44:39;6.63;;;4.80;;
12348;SDS011;5974;42.710;27.258;2022-10-30T00:47:10;6.70;;;4.73;;
12348;SDS011;5974;42.710;27.258;2022-10-30T00:49:40;7.50;;;4.97;;
12348;SDS011;5974;42.710;27.258;2022-10-30T00:52:08;7.20;;;5.53;;
12348;SDS011;5974;42.710;27.258;2022-10-30T00:54:35;6.13;;;5.53;;
12348;SDS011;5974;42.710;27.258;2022-10-30T00:57:02;8.47;;;5.70;;
12348;SDS011;5974;42.710;27.258;2022-10-30T00:59:31;10.87;;;5.80;;
12348;SDS011;5974;42.710;27.258;2022-10-30T01:01:59;7.67;;;5.40;;
12348;SDS011;5974;42.710;27.258;2022-10-30T01:04:27;6.37;;;5.60;;
12348;SDS011;5974;42.710;27.258;2022-10-30T01:06:54;8.43;;;5.83;;
12348;SDS011;5974;42.710;27.258;2022-10-30T01:09:21;13.50;;;6.07;;
12348;SDS011;5974;42.710;27.258;2022-10-30T01:11:48;8.60;;;6.93;;
12348;SDS011;5974;42.710;27.258;2022-10-30T01:14:15;10.23;;;6.90;;
12348;SDS011;5974;42.710;27.258;2022-10-30T01:16:46;17.07;;;7.23;;
12348;SDS011;5974;42.710;27.258;2022-10-30T01:19:17;11.23;;;7.23;;
12348;SDS011;5974;42.710;27.258;2022-10-30T01:21:52;10.40;;;6.50;;
12348;SDS011;5974;42.710;27.258;2022-10-30T01:24:27;8.73;;;6.47;;
12348;SDS011;5974;42.710;27.258;2022-10-30T01:26:59;9.13;;;6.23;;
12348;SDS011;5974;42.710;27.258;2022-10-30T01:29:31;10.17;;;6.90;;
12348;SDS011;5974;42.710;27.258;2022-10-30T01:32:07;8.43;;;6.37;;
12348;SDS011;5974;42.710;27.258;2022-10-30T01:34:44;11.70;;;6.87;;
12348;SDS011;5974;42.710;27.258;2022-10-30T01:37:15;8.97;;;6.03;;
12348;SDS011;5974;42.710;27.258;2022-10-30T01:39:43;10.23;;;7.20;;
12348;SDS011;5974;42.710;27.258;2022-10-30T01:42:36;9.27;;;6.70;;
12348;SDS011;5974;42.710;27.258;2022-10-30T01:44:57;15.13;;;6.90;;
12348;SDS011;5974;42.710;27.258;2022-10-30T01:47:25;19.53;;;7.63;;
12348;SDS011;5974;42.710;27.258;2022-10-30T01:50:00;8.27;;;6.73;;
12348;SDS011;5974;42.710;27.258;2022-10-30T01:52:34;9.17;;;6.60;;
12348;SDS011;5974;42.710;27.258;2022-10-30T01:55:05;12.83;;;7.03;;
12348;SDS011;5974;42.710;27.258;2022-10-30T01:57:37;8.67;;;7.03;;
12348;SDS011;5974;42.710;27.258;2022-10-30T02:00:06;8.53;;;6.70;;
12348;SDS011;5974;42.710;27.258;2022-10-30T02:02:33;7.83;;;7.03;;
12348;SDS011;5974;42.710;27.258;2022-10-30T02:05:00;8.77;;;7.13;;
12348;SDS011;5974;42.710;27.258;2022-10-30T02:07:26;9.27;;;6.80;;
12348;SDS011;5974;42.710;27.258;2022-10-30T02:09:54;9.53;;;7.20;;
12348;SDS011;5974;42.710;27.258;2022-10-30T02:12:21;9.93;;;7.03;;
12348;SDS011;5974;42.710;27.258;2022-10-30T02:14:49;10.30;;;7.30;;
12348;SDS011;5974;42.710;27.258;2022-10-30T02:17:17;8.43;;;7.10;;
12348;SDS011;5974;42.710;27.258;2022-10-30T02:19:44;7.03;;;6.33;;
12348;SDS011;5974;42.710;27.258;2022-10-30T02:22:12;9.87;;;6.73;;
12348;SDS011;5974;42.710;27.258;2022-10-30T02:24:39;14.70;;;7.50;;
12348;SDS011;5974;42.710;27.258;2022-10-30T02:27:05;10.57;;;7.33;;
12348;SDS011;5974;42.710;27.258;2022-10-30T02:29:32;11.63;;;6.57;;
12348;SDS011;5974;42.710;27.258;2022-10-30T02:31:58;9.80;;;7.27;;
12348;SDS011;5974;42.710;27.258;2022-10-30T02:34:25;8.30;;;6.80;;
12348;SDS011;5974;42.710;27.258;2022-10-30T02:36:51;10.20;;;7.13;;
12348;SDS011;5974;42.710;27.258;2022-10-30T02:39:19;9.23;;;7.57;;
12348;SDS011;5974;42.710;27.258;2022-10-30T02:41:46;8.30;;;7.30;;
12348;SDS011;5974;42.710;27.258;2022-10-30T02:44:13;10.90;;;7.27;;
12348;SDS011;5974;42.710;27.258;2022-10-30T02:46:39;10.90;;;7.30;;
12348;SDS011;5974;42.710;27.258;2022-10-30T02:49:06;8.50;;;7.13;;
12348;SDS011;5974;42.710;27.258;2022-10-30T02:51:32;9.90;;;7.23;;
12348;SDS011;5974;42.710;27.258;2022-10-30T02:53:59;10.37;;;7.10;;
12348;SDS011;5974;42.710;27.258;2022-10-30T02:56:27;10.23;;;7.63;;
12348;SDS011;5974;42.710;27.258;2022-10-30T02:58:54;9.10;;;7.17;;
12348;SDS011;5974;42.710;27.258;2022-10-30T03:01:21;8.43;;;6.93;;
12348;SDS011;5974;42.710;27.258;2022-10-30T03:03:47;9.93;;;7.57;;
12348;SDS011;5974;42.710;27.258;2022-10-30T03:06:15;8.27;;;7.33;;
12348;SDS011;5974;42.710;27.258;2022-10-30T03:08:42;12.40;;;7.23;;
12348;SDS011;5974;42.710;27.258;2022-10-30T03:11:09;8.40;;;7.00;;
12348;SDS011;5974;42.710;27.258;2022-10-30T03:13:37;9.47;;;7.07;;
12348;SDS011;5974;42.710;27.258;2022-10-30T03:16:05;10.67;;;7.53;;
12348;SDS011;5974;42.710;27.258;2022-10-30T03:18:33;8.97;;;7.20;;
12348;SDS011;5974;42.710;27.258;2022-10-30T03:21:00;14.93;;;8.37;;
12348;SDS011;5974;42.710;27.258;2022-10-30T03:23:26;13.73;;;7.37;;
12348;SDS011;5974;42.710;27.258;2022-10-30T03:25:54;11.50;;;7.70;;
12348;SDS011;5974;42.710;27.258;2022-10-30T03:28:21;9.83;;;7.53;;
12348;SDS011;5974;42.710;27.258;2022-10-30T03:30:49;10.37;;;7.97;;
12348;SDS011;5974;42.710;27.258;2022-10-30T03:33:16;11.13;;;7.70;;
12348;SDS011;5974;42.710;27.258;2022-10-30T03:35:43;7.40;;;6.60;;
12348;SDS011;5974;42.710;27.258;2022-10-30T03:38:10;9.13;;;6.70;;
12348;SDS011;5974;42.710;27.258;2022-10-30T03:40:37;11.30;;;7.20;;
12348;SDS011;5974;42.710;27.258;2022-10-30T03:43:03;9.33;;;6.80;;
12348;SDS011;5974;42.710;27.258;2022-10-30T03:45:30;7.87;;;6.90;;
12348;SDS011;5974;42.710;27.258;2022-10-30T03:47:58;10.97;;;7.13;;
12348;SDS011;5974;42.710;27.258;2022-10-30T03:50:25;10.03;;;6.90;;
12348;SDS011;5974;42.710;27.258;2022-10-30T03:52:52;8.50;;;7.00;;
12348;SDS011;5974;42.710;27.258;2022-10-30T03:55:20;9.00;;;7.23;;
12348;SDS011;5974;42.710;27.258;2022-10-30T03:57:47;10.90;;;7.57;;
12348;SDS011;5974;42.710;27.258;2022-10-30T04:00:13;8.77;;;7.37;;
12348;SDS011;5974;42.710;27.258;2022-10-30T04:02:43;11.80;;;7.33;;
12348;SDS011;5974;42.710;27.258;2022-10-30T04:05:11;11.13;;;7.73;;
12348;SDS011;5974;42.710;27.258;2022-10-30T04:07:38;12.33;;;7.83;;
12348;SDS011;5974;42.710;27.258;2022-10-30T04:10:04;11.73;;;8.60;;
12348;SDS011;5974;42.710;27.258;2022-10-30T04:12:31;19.83;;;9.20;;
12348;SDS011;5974;42.710;27.258;2022-10-30T04:14:57;11.40;;;8.37;;
12348;SDS011;5974;42.710;27.258;2022-10-30T04:17:24;12.03;;;8.47;;
12348;SDS011;5974;42.710;27.258;2022-10-30T04:19:51;10.60;;;8.07;;
12348;SDS011;5974;42.710;27.258;2022-10-30T04:22:19;10.13;;;8.30;;
12348;SDS011;5974;42.710;27.258;2022-10-30T04:24:45;15.37;;;8.70;;
12348;SDS011;5974;42.710;27.258;2022-10-30T04:27:13;11.40;;;7.93;;
12348;SDS011;5974;42.710;27.258;2022-10-30T04:29:39;11.90;;;7.90;;
12348;SDS011;5974;42.710;27.258;2022-10-30T04:32:12;14.47;;;8.50;;
12348;SDS011;5974;42.710;27.258;2022-10-30T04:34:39;12.00;;;8.33;;
12348;SDS011;5974;42.710;27.258;2022-10-30T04:37:06;10.70;;;8.53;;
12348;SDS011;5974;42.710;27.258;2022-10-30T04:39:34;11.20;;;8.40;;
12348;SDS011;5974;42.710;27.258;2022-10-30T04:42:00;10.57;;;8.13;;
12348;SDS011;5974;42.710;27.258;2022-10-30T04:44:27;11.23;;;8.30;;
12348;SDS011;5974;42.710;27.258;2022-10-30T04:46:53;11.40;;;8.10;;
12348;SDS011;5974;42.710;27.258;2022-10-30T04:49:20;15.20;;;8.27;;
12348;SDS011;5974;42.710;27.258;2022-10-30T04:51:47;14.87;;;9.37;;
12348;SDS011;5974;42.710;27.258;2022-10-30T04:54:13;13.27;;;8.43;;
12348;SDS011;5974;42.710;27.258;2022-10-30T04:56:41;15.10;;;8.23;;
12348;SDS011;5974;42.710;27.258;2022-10-30T04:59:08;14.63;;;8.30;;
12348;SDS011;5974;42.710;27.258;2022-10-30T05:01:34;9.40;;;7.57;;
12348;SDS011;5974;42.710;27.258;2022-10-30T05:04:01;10.17;;;7.37;;
12348;SDS011;5974;42.710;27.258;2022-10-30T05:06:28;15.53;;;8.50;;
12348;SDS011;5974;42.710;27.258;2022-10-30T05:08:55;10.17;;;8.10;;
12348;SDS011;5974;42.710;27.258;2022-10-30T05:11:22;20.77;;;8.87;;
12348;SDS011;5974;42.710;27.258;2022-10-30T05:13:50;13.37;;;8.90;;
12348;SDS011;5974;42.710;27.258;2022-10-30T05:16:16;15.53;;;8.03;;
12348;SDS011;5974;42.710;27.258;2022-10-30T05:18:43;11.80;;;8.67;;
12348;SDS011;5974;42.710;27.258;2022-10-30T05:21:09;12.87;;;9.10;;
12348;SDS011;5974;42.710;27.258;2022-10-30T05:23:36;12.53;;;9.17;;
12348;SDS011;5974;42.710;27.258;2022-10-30T05:26:03;29.67;;;17.90;;
12348;SDS011;5974;42.710;27.258;2022-10-30T05:28:29;14.93;;;10.20;;
12348;SDS011;5974;42.710;27.258;2022-10-30T05:30:57;12.30;;;9.40;;
12348;SDS011;5974;42.710;27.258;2022-10-30T05:33:25;9.23;;;8.00;;
12348;SDS011;5974;42.710;27.258;2022-10-30T05:35:51;7.57;;;6.83;;
12348;SDS011;5974;42.710;27.258;2022-10-30T05:38:18;7.40;;;5.13;;
12348;SDS011;5974;42.710;27.258;2022-10-30T05:40:45;7.37;;;4.47;;
12348;SDS011;5974;42.710;27.258;2022-10-30T05:43:12;4.67;;;4.27;;
12348;SDS011;5974;42.710;27.258;2022-10-30T05:45:38;4.47;;;4.07;;
12348;SDS011;5974;42.710;27.258;2022-10-30T05:48:06;6.47;;;3.90;;
12348;SDS011;5974;42.710;27.258;2022-10-30T05:50:33;4.53;;;3.80;;
12348;SDS011;5974;42.710;27.258;2022-10-30T05:53:00;5.27;;;3.90;;
12348;SDS011;5974;42.710;27.258;2022-10-30T05:55:27;11.70;;;10.60;;
12348;SDS011;5974;42.710;27.258;2022-10-30T05:57:54;8.73;;;7.83;;
12348;SDS011;5974;42.710;27.258;2022-10-30T06:00:21;12.30;;;9.60;;
12348;SDS011;5974;42.710;27.258;2022-10-30T06:02:47;9.90;;;8.60;;
12348;SDS011;5974;42.710;27.258;2022-10-30T06:05:15;18.37;;;16.27;;
12348;SDS011;5974;42.710;27.258;2022-10-30T06:07:42;9.33;;;8.30;;
12348;SDS011;5974;42.710;27.258;2022-10-30T06:10:08;6.67;;;6.07;;
12348;SDS011;5974;42.710;27.258;2022-10-30T06:12:35;8.30;;;5.97;;
12348;SDS011;5974;42.710;27.258;2022-10-30T06:15:02;6.13;;;5.43;;
12348;SDS011;5974;42.710;27.258;2022-10-30T06:17:29;18.80;;;6.70;;
12348;SDS011;5974;42.710;27.258;2022-10-30T06:19:55;9.47;;;7.77;;
12348;SDS011;5974;42.710;27.258;2022-10-30T06:22:23;8.20;;;5.23;;
12348;SDS011;5974;42.710;27.258;2022-10-30T06:24:50;5.70;;;5.20;;
12348;SDS011;5974;42.710;27.258;2022-10-30T06:27:16;5.47;;;5.03;;
12348;SDS011;5974;42.710;27.258;2022-10-30T06:29:43;6.93;;;5.80;;
12348;SDS011;5974;42.710;27.258;2022-10-30T06:32:09;5.60;;;5.10;;
12348;SDS011;5974;42.710;27.258;2022-10-30T06:34:36;10.03;;;8.83;;
12348;SDS011;5974;42.710;27.258;2022-10-30T06:39:45;6.07;;;5.50;;
12348;SDS011;5974;42.710;27.258;2022-10-30T06:42:12;6.17;;;5.43;;
12348;SDS011;5974;42.710;27.258;2022-10-30T06:44:39;4.40;;;4.00;;
12348;SDS011;5974;42.710;27.258;2022-10-30T06:47:05;5.57;;;4.60;;
12348;SDS011;5974;42.710;27.258;2022-10-30T06:49:32;5.57;;;4.63;;
12348;SDS011;5974;42.710;27.258;2022-10-30T06:51:59;5.83;;;4.33;;
12348;SDS011;5974;42.710;27.258;2022-10-30T06:54:25;4.97;;;4.43;;
12348;SDS011;5974;42.710;27.258;2022-10-30T06:56:53;7.10;;;5.13;;
12348;SDS011;5974;42.710;27.258;2022-10-30T06:59:20;7.60;;;5.97;;
12348;SDS011;5974;42.710;27.258;2022-10-30T07:01:46;6.43;;;5.83;;
12348;SDS011;5974;42.710;27.258;2022-10-30T07:04:13;7.17;;;6.07;;
12348;SDS011;5974;42.710;27.258;2022-10-30T07:06:40;5.67;;;4.63;;
12348;SDS011;5974;42.710;27.258;2022-10-30T07:09:06;5.20;;;4.70;;
12348;SDS011;5974;42.710;27.258;2022-10-30T07:11:33;5.80;;;4.90;;
12348;SDS011;5974;42.710;27.258;2022-10-30T07:14:01;10.80;;;5.13;;
12348;SDS011;5974;42.710;27.258;2022-10-30T07:16:28;6.63;;;5.93;;
12348;SDS011;5974;42.710;27.258;2022-10-30T07:18:54;8.43;;;5.10;;
12348;SDS011;5974;42.710;27.258;2022-10-30T07:21:21;7.83;;;5.00;;
12348;SDS011;5974;42.710;27.258;2022-10-30T07:23:48;6.07;;;5.13;;
12348;SDS011;5974;42.710;27.258;2022-10-30T07:26:14;8.80;;;5.60;;
12348;SDS011;5974;42.710;27.258;2022-10-30T07:28:41;7.00;;;5.03;;
12348;SDS011;5974;42.710;27.258;2022-10-30T07:31:09;7.53;;;5.50;;
12348;SDS011;5974;42.710;27.258;2022-10-30T07:33:35;7.83;;;5.87;;
12348;SDS011;5974;42.710;27.258;2022-10-30T07:36:02;9.43;;;5.83;;
12348;SDS011;5974;42.710;27.258;2022-10-30T07:38:28;6.20;;;5.10;;
12348;SDS011;5974;42.710;27.258;2022-10-30T07:40:55;6.80;;;5.50;;
12348;SDS011;5974;42.710;27.258;2022-10-30T07:43:22;5.87;;;4.90;;
12348;SDS011;5974;42.710;27.258;2022-10-30T07:45:48;7.63;;;4.73;;
12348;SDS011;5974;42.710;27.258;2022-10-30T07:48:16;6.43;;;4.70;;
12348;SDS011;5974;42.710;27.258;2022-10-30T07:50:43;7.77;;;5.37;;
12348;SDS011;5974;42.710;27.258;2022-10-30T07:53:09;4.83;;;3.43;;
12348;SDS011;5974;42.710;27.258;2022-10-30T07:55:36;4.57;;;3.07;;
12348;SDS011;5974;42.710;27.258;2022-10-30T07:58:02;5.33;;;3.30;;
12348;SDS011;5974;42.710;27.258;2022-10-30T08:00:29;3.73;;;2.93;;
12348;SDS011;5974;42.710;27.258;2022-10-30T08:02:56;6.53;;;3.00;;
12348;SDS011;5974;42.710;27.258;2022-10-30T08:05:24;4.40;;;3.30;;
12348;SDS011;5974;42.710;27.258;2022-10-30T08:07:50;5.77;;;4.23;;
12348;SDS011;5974;42.710;27.258;2022-10-30T08:10:17;6.17;;;3.53;;
12348;SDS011;5974;42.710;27.258;2022-10-30T08:12:43;4.67;;;3.30;;
12348;SDS011;5974;42.710;27.258;2022-10-30T08:15:11;6.40;;;4.97;;
12348;SDS011;5974;42.710;27.258;2022-10-30T08:17:41;4.40;;;3.40;;
12348;SDS011;5974;42.710;27.258;2022-10-30T08:20:09;5.47;;;4.70;;
12348;SDS011;5974;42.710;27.258;2022-10-30T08:22:43;6.53;;;4.20;;
12348;SDS011;5974;42.710;27.258;2022-10-30T08:25:10;5.93;;;4.20;;
12348;SDS011;5974;42.710;27.258;2022-10-30T08:27:37;7.23;;;4.20;;
12348;SDS011;5974;42.710;27.258;2022-10-30T08:30:03;4.80;;;4.13;;
12348;SDS011;5974;42.710;27.258;2022-10-30T08:32:30;10.13;;;5.00;;
12348;SDS011;5974;42.710;27.258;2022-10-30T08:34:57;9.23;;;4.43;;
12348;SDS011;5974;42.710;27.258;2022-10-30T08:37:23;5.53;;;4.40;;
12348;SDS011;5974;42.710;27.258;2022-10-30T08:39:52;7.70;;;3.90;;
12348;SDS011;5974;42.710;27.258;2022-10-30T08:42:18;5.30;;;3.80;;
12348;SDS011;5974;42.710;27.258;2022-10-30T08:44:46;6.20;;;4.40;;
12348;SDS011;5974;42.710;27.258;2022-10-30T08:47:13;10.23;;;5.00;;
12348;SDS011;5974;42.710;27.258;2022-10-30T08:49:39;11.63;;;4.83;;
12348;SDS011;5974;42.710;27.258;2022-10-30T08:52:06;6.70;;;4.40;;
12348;SDS011;5974;42.710;27.258;2022-10-30T08:54:33;5.33;;;4.33;;
12348;SDS011;5974;42.710;27.258;2022-10-30T08:57:01;7.07;;;4.47;;
12348;SDS011;5974;42.710;27.258;2022-10-30T08:59:28;8.27;;;5.17;;
12348;SDS011;5974;42.710;27.258;2022-10-30T09:01:55;7.13;;;5.07;;
12348;SDS011;5974;42.710;27.258;2022-10-30T09:04:21;7.33;;;5.03;;
12348;SDS011;5974;42.710;27.258;2022-10-30T09:06:48;5.17;;;4.53;;
12348;SDS011;5974;42.710;27.258;2022-10-30T09:09:14;6.27;;;4.83;;
12348;SDS011;5974;42.710;27.258;2022-10-30T09:11:41;4.80;;;4.33;;
12348;SDS011;5974;42.710;27.258;2022-10-30T09:14:09;7.13;;;4.57;;
12348;SDS011;5974;42.710;27.258;2022-10-30T09:16:35;7.93;;;4.30;;
12348;SDS011;5974;42.710;27.258;2022-10-30T09:19:02;8.37;;;5.07;;
12348;SDS011;5974;42.710;27.258;2022-10-30T09:21:29;7.43;;;4.80;;
12348;SDS011;5974;42.710;27.258;2022-10-30T09:23:55;5.83;;;4.60;;
12348;SDS011;5974;42.710;27.258;2022-10-30T09:26:22;6.10;;;4.37;;
12348;SDS011;5974;42.710;27.258;2022-10-30T09:28:48;7.23;;;4.60;;
12348;SDS011;5974;42.710;27.258;2022-10-30T09:31:16;8.60;;;4.30;;
12348;SDS011;5974;42.710;27.258;2022-10-30T09:33:43;6.07;;;4.47;;
12348;SDS011;5974;42.710;27.258;2022-10-30T09:36:09;6.73;;;4.60;;
12348;SDS011;5974;42.710;27.258;2022-10-30T09:38:36;8.63;;;4.90;;
12348;SDS011;5974;42.710;27.258;2022-10-30T09:41:09;9.10;;;4.30;;
12348;SDS011;5974;42.710;27.258;2022-10-30T09:43:41;5.53;;;4.27;;
12348;SDS011;5974;42.710;27.258;2022-10-30T09:46:14;5.03;;;4.33;;
12348;SDS011;5974;42.710;27.258;2022-10-30T09:48:59;8.33;;;4.30;;
12348;SDS011;5974;42.710;27.258;2022-10-30T09:51:34;6.40;;;4.87;;
12348;SDS011;5974;42.710;27.258;2022-10-30T09:54:05;6.17;;;4.67;;
12348;SDS011;5974;42.710;27.258;2022-10-30T09:56:38;4.80;;;4.13;;
12348;SDS011;5974;42.710;27.258;2022-10-30T09:59:07;7.33;;;4.37;;
12348;SDS011;5974;42.710;27.258;2022-10-30T10:01:38;6.37;;;4.50;;
12348;SDS011;5974;42.710;27.258;2022-10-30T10:04:12;5.00;;;4.50;;
12348;SDS011;5974;42.710;27.258;2022-10-30T10:06:42;6.63;;;3.93;;
12348;SDS011;5974;42.710;27.258;2022-10-30T10:09:11;7.47;;;4.70;;
12348;SDS011;5974;42.710;27.258;2022-10-30T10:11:41;6.60;;;4.47;;
12348;SDS011;5974;42.710;27.258;2022-10-30T10:14:11;9.27;;;4.20;;
12348;SDS011;5974;42.710;27.258;2022-10-30T10:16:39;6.20;;;4.53;;
12348;SDS011;5974;42.710;27.258;2022-10-30T10:19:08;6.23;;;4.43;;
12348;SDS011;5974;42.710;27.258;2022-10-30T10:21:38;8.30;;;4.43;;
12348;SDS011;5974;42.710;27.258;2022-10-30T10:24:11;4.80;;;4.10;;
12348;SDS011;5974;42.710;27.258;2022-10-30T10:26:42;10.17;;;4.90;;
12348;SDS011;5974;42.710;27.258;2022-10-30T10:29:20;7.30;;;4.50;;
12348;SDS011;5974;42.710;27.258;2022-10-30T10:31:50;6.80;;;4.50;;
12348;SDS011;5974;42.710;27.258;2022-10-30T10:34:27;5.03;;;3.90;;
12348;SDS011;5974;42.710;27.258;2022-10-30T10:36:59;5.57;;;3.87;;
12348;SDS011;5974;42.710;27.258;2022-10-30T10:39:33;4.50;;;3.63;;
12348;SDS011;5974;42.710;27.258;2022-10-30T10:42:08;6.37;;;4.07;;
12348;SDS011;5974;42.710;27.258;2022-10-30T10:44:39;5.97;;;3.93;;
12348;SDS011;5974;42.710;27.258;2022-10-30T10:47:13;6.40;;;4.23;;
12348;SDS011;5974;42.710;27.258;2022-10-30T10:49:47;4.87;;;3.70;;
12348;SDS011;5974;42.710;27.258;2022-10-30T10:52:19;9.37;;;4.17;;
12348;SDS011;5974;42.710;27.258;2022-10-30T10:54:47;10.80;;;4.90;;
12348;SDS011;5974;42.710;27.258;2022-10-30T10:57:15;6.63;;;3.93;;
12348;SDS011;5974;42.710;27.258;2022-10-30T10:59:43;6.03;;;5.40;;
12348;SDS011;5974;42.710;27.258;2022-10-30T11:02:20;7.43;;;5.20;;
12348;SDS011;5974;42.710;27.258;2022-10-30T11:04:48;5.90;;;4.67;;
12348;SDS011;5974;42.710;27.258;2022-10-30T11:07:20;6.90;;;4.43;;
12348;SDS011;5974;42.710;27.258;2022-10-30T11:09:47;7.20;;;5.03;;
12348;SDS011;5974;42.710;27.258;2022-10-30T11:12:16;9.97;;;5.10;;
12348;SDS011;5974;42.710;27.258;2022-10-30T11:14:44;6.40;;;5.00;;
12348;SDS011;5974;42.710;27.258;2022-10-30T11:17:12;5.37;;;4.67;;
12348;SDS011;5974;42.710;27.258;2022-10-30T11:19:41;7.40;;;4.80;;
12348;SDS011;5974;42.710;27.258;2022-10-30T11:22:09;7.53;;;4.67;;
12348;SDS011;5974;42.710;27.258;2022-10-30T11:24:39;8.00;;;3.73;;
12348;SDS011;5974;42.710;27.258;2022-10-30T11:27:15;4.33;;;3.07;;
12348;SDS011;5974;42.710;27.258;2022-10-30T11:29:46;4.33;;;3.50;;
12348;SDS011;5974;42.710;27.258;2022-10-30T11:32:16;5.23;;;3.97;;
12348;SDS011;5974;42.710;27.258;2022-10-30T11:34:43;5.37;;;3.60;;
12348;SDS011;5974;42.710;27.258;2022-10-30T11:37:27;5.47;;;3.70;;
12348;SDS011;5974;42.710;27.258;2022-10-30T11:40:01;4.77;;;3.83;;
12348;SDS011;5974;42.710;27.258;2022-10-30T11:42:29;3.50;;;3.20;;
12348;SDS011;5974;42.710;27.258;2022-10-30T11:44:55;5.60;;;3.70;;
12348;SDS011;5974;42.710;27.258;2022-10-30T11:47:24;3.50;;;3.20;;
12348;SDS011;5974;42.710;27.258;2022-10-30T11:49:52;3.63;;;3.10;;
12348;SDS011;5974;42.710;27.258;2022-10-30T11:52:22;4.37;;;3.30;;
12348;SDS011;5974;42.710;27.258;2022-10-30T11:54:51;6.67;;;3.63;;
12348;SDS011;5974;42.710;27.258;2022-10-30T11:57:20;5.37;;;3.67;;
12348;SDS011;5974;42.710;27.258;2022-10-30T11:59:49;4.63;;;3.40;;
12348;SDS011;5974;42.710;27.258;2022-10-30T12:02:20;3.23;;;2.93;;
12348;SDS011;5974;42.710;27.258;2022-10-30T12:04:47;6.50;;;3.57;;
12348;SDS011;5974;42.710;27.258;2022-10-30T12:07:17;5.87;;;3.37;;
12348;SDS011;5974;42.710;27.258;2022-10-30T12:09:45;6.60;;;3.77;;
12348;SDS011;5974;42.710;27.258;2022-10-30T12:12:15;4.30;;;3.37;;
12348;SDS011;5974;42.710;27.258;2022-10-30T12:14:46;9.33;;;3.30;;
12348;SDS011;5974;42.710;27.258;2022-10-30T12:17:13;4.87;;;3.07;;
12348;SDS011;5974;42.710;27.258;2022-10-30T12:19:43;4.40;;;3.63;;
12348;SDS011;5974;42.710;27.258;2022-10-30T12:22:10;5.03;;;4.00;;
12348;SDS011;5974;42.710;27.258;2022-10-30T12:24:49;4.70;;;3.60;;
12348;SDS011;5974;42.710;27.258;2022-10-30T12:27:16;3.60;;;3.30;;
12348;SDS011;5974;42.710;27.258;2022-10-30T12:29:45;4.43;;;3.30;;
12348;SDS011;5974;42.710;27.258;2022-10-30T12:32:16;5.50;;;3.63;;
12348;SDS011;5974;42.710;27.258;2022-10-30T12:34:44;4.80;;;3.93;;
12348;SDS011;5974;42.710;27.258;2022-10-30T12:37:13;7.60;;;3.67;;
12348;SDS011;5974;42.710;27.258;2022-10-30T12:39:44;5.57;;;3.63;;
12348;SDS011;5974;42.710;27.258;2022-10-30T12:42:13;4.07;;;3.67;;
12348;SDS011;5974;42.710;27.258;2022-10-30T12:44:41;7.30;;;4.27;;
12348;SDS011;5974;42.710;27.258;2022-10-30T12:47:11;6.80;;;3.67;;
12348;SDS011;5974;42.710;27.258;2022-10-30T12:49:41;3.77;;;3.40;;
12348;SDS011;5974;42.710;27.258;2022-10-30T12:52:09;4.63;;;3.80;;
12348;SDS011;5974;42.710;27.258;2022-10-30T12:54:38;3.90;;;3.50;;
12348;SDS011;5974;42.710;27.258;2022-10-30T12:57:07;6.20;;;3.60;;
12348;SDS011;5974;42.710;27.258;2022-10-30T12:59:38;4.47;;;3.40;;
12348;SDS011;5974;42.710;27.258;2022-10-30T13:02:10;9.27;;;3.60;;
12348;SDS011;5974;42.710;27.258;2022-10-30T13:04:39;6.93;;;3.60;;
12348;SDS011;5974;42.710;27.258;2022-10-30T13:07:09;4.80;;;3.60;;
12348;SDS011;5974;42.710;27.258;2022-10-30T13:09:39;4.73;;;4.20;;
12348;SDS011;5974;42.710;27.258;2022-10-30T13:12:08;4.93;;;3.70;;
12348;SDS011;5974;42.710;27.258;2022-10-30T13:14:37;4.27;;;3.53;;
12348;SDS011;5974;42.710;27.258;2022-10-30T13:17:05;7.93;;;3.80;;
12348;SDS011;5974;42.710;27.258;2022-10-30T13:19:34;5.93;;;3.47;;
12348;SDS011;5974;42.710;27.258;2022-10-30T13:22:01;5.67;;;3.30;;
12348;SDS011;5974;42.710;27.258;2022-10-30T13:24:36;9.83;;;3.40;;
12348;SDS011;5974;42.710;27.258;2022-10-30T13:27:08;4.73;;;3.57;;
12348;SDS011;5974;42.710;27.258;2022-10-30T13:29:36;5.57;;;3.40;;
12348;SDS011;5974;42.710;27.258;2022-10-30T13:32:13;6.20;;;3.40;;
12348;SDS011;5974;42.710;27.258;2022-10-30T13:34:44;11.07;;;4.07;;
12348;SDS011;5974;42.710;27.258;2022-10-30T13:37:12;4.07;;;3.50;;
12348;SDS011;5974;42.710;27.258;2022-10-30T13:39:42;3.93;;;3.23;;
12348;SDS011;5974;42.710;27.258;2022-10-30T13:42:17;5.63;;;3.30;;
12348;SDS011;5974;42.710;27.258;2022-10-30T13:44:48;6.60;;;3.47;;
12348;SDS011;5974;42.710;27.258;2022-10-30T13:47:21;3.70;;;3.23;;
12348;SDS011;5974;42.710;27.258;2022-10-30T13:49:59;6.13;;;3.70;;
12348;SDS011;5974;42.710;27.258;2022-10-30T13:52:28;3.83;;;3.13;;
12348;SDS011;5974;42.710;27.258;2022-10-30T13:54:59;5.33;;;3.60;;
12348;SDS011;5974;42.710;27.258;2022-10-30T13:57:28;8.43;;;4.10;;
12348;SDS011;5974;42.710;27.258;2022-10-30T13:59:58;7.33;;;3.70;;
12348;SDS011;5974;42.710;27.258;2022-10-30T14:02:31;5.77;;;3.70;;
12348;SDS011;5974;42.710;27.258;2022-10-30T14:05:01;8.70;;;3.57;;
12348;SDS011;5974;42.710;27.258;2022-10-30T14:07:31;8.53;;;4.10;;
12348;SDS011;5974;42.710;27.258;2022-10-30T14:10:04;6.27;;;3.80;;
12348;SDS011;5974;42.710;27.258;2022-10-30T14:12:43;4.50;;;3.50;;
12348;SDS011;5974;42.710;27.258;2022-10-30T14:15:14;4.97;;;3.40;;
12348;SDS011;5974;42.710;27.258;2022-10-30T14:20:25;9.13;;;3.57;;
12348;SDS011;5974;42.710;27.258;2022-10-30T14:23:05;7.00;;;3.67;;
12348;SDS011;5974;42.710;27.258;2022-10-30T14:25:34;4.87;;;3.80;;
12348;SDS011;5974;42.710;27.258;2022-10-30T14:28:01;4.70;;;3.60;;
12348;SDS011;5974;42.710;27.258;2022-10-30T14:30:27;7.60;;;4.40;;
12348;SDS011;5974;42.710;27.258;2022-10-30T14:32:54;14.07;;;7.80;;
12348;SDS011;5974;42.710;27.258;2022-10-30T14:35:32;7.87;;;6.07;;
12348;SDS011;5974;42.710;27.258;2022-10-30T14:38:15;12.07;;;8.10;;
12348;SDS011;5974;42.710;27.258;2022-10-30T14:40:54;10.37;;;5.77;;
12348;SDS011;5974;42.710;27.258;2022-10-30T14:43:28;8.90;;;5.60;;
12348;SDS011;5974;42.710;27.258;2022-10-30T14:45:57;12.50;;;8.87;;
12348;SDS011;5974;42.710;27.258;2022-10-30T14:48:27;14.03;;;9.33;;
12348;SDS011;5974;42.710;27.258;2022-10-30T14:50:58;18.93;;;11.20;;
12348;SDS011;5974;42.710;27.258;2022-10-30T14:53:30;21.57;;;11.83;;
12348;SDS011;5974;42.710;27.258;2022-10-30T14:56:02;15.97;;;10.23;;